Thunder radar more information blitzortung!


Radar de pluja more information rain snow radar


Visita la nostra xarxa de llocs de meteo:

Template documentation
and downloads

And another site



No particular awareness of the weather is required.    There are no Weather-warnings

Pagina Historial Weather Underground text

Diari Resum May 28, 2016 Unitats:  Mètric    Imperial   Tant
« Previous Dia
SegĂźent Dia »
Diari Setmana Mensual Anual Personalitzada
  Maxima: Minima: Media:
Temperatura: -17.8 °C -9.9 °C -6.4 °C
Punt de rosada: -17.8 °C -11.5 °C -9.7 °C
Humitat: Humidity % 57 % 70 %
Wind Speed: 0 km/h 0 km/h 11.7 km/h
RĂ fegues de vent: 0 km/h - -
Vent:- - SE
Pression baro: 0 hPa 34198.6 hPa -
Precipitacions: 25.4 mm    
Historical Graphs
 
 
Dades de taula per May 28, 2016
Temps Temperatura Punt de rosada Pression baro Vent Wind Speed RĂ fegues de vent Humitat Rainfall Rate (Hourly)
-17.8 °C -17.8 °C 0 hPa Calm     Humidity % 0 mm
00:00 -9.7 °C -11.3 °C 34327.3 hPa Calm     83 % 0 mm
00:04 -8.6 °C -10.9 °C 34361.1 hPa SSW 11.9 km/h 11.9 km/h 77 % 0 mm
00:10 -9.7 °C -11.4 °C 34327.3 hPa SW 2.6 km/h 2.6 km/h 82 % 0 mm
00:20 -9.8 °C -11.3 °C 34327.3 hPa Calm     83 % 0 mm
00:30 -9.8 °C -11.4 °C 34327.3 hPa Calm   2.6 km/h 83 % 0 mm
00:40 -9.8 °C -11.3 °C 34327.3 hPa Calm   2.6 km/h 83 % 0 mm
00:50 -9.8 °C -11.3 °C 34327.3 hPa Calm   5.1 km/h 83 % 0 mm
01:00 -9.8 °C -11.3 °C 34327.3 hPa Calm     84 % 0 mm
01:10 -9.9 °C -11.5 °C 34327.3 hPa Calm   5.1 km/h 83 % 0 mm
01:20 -9.9 °C -11.3 °C 34327.3 hPa Calm     85 % 0 mm
01:30 -9.9 °C -11.3 °C 34327.3 hPa South 2.6 km/h 2.6 km/h 85 % 0 mm
01:40 -9.8 °C -11.2 °C 34327.3 hPa ENE 2.6 km/h 2.6 km/h 85 % 0 mm
01:50 -9.7 °C -11.1 °C 34327.3 hPa ENE 2.6 km/h 5.1 km/h 85 % 0 mm
02:00 -9.7 °C -11.2 °C 34327.3 hPa ENE 2.6 km/h 5.1 km/h 84 % 0 mm
02:10 -9.6 °C -11.1 °C 34327.3 hPa ENE 2.6 km/h 5.1 km/h 84 % 0 mm
02:20 -9.6 °C -11.2 °C 34327.3 hPa ENE 2.6 km/h 5.1 km/h 83 % 0 mm
02:30 -9.7 °C -11.3 °C 34327.3 hPa Calm   5.1 km/h 82 % 0 mm
02:40 -9.6 °C -11.3 °C 34327.3 hPa Calm   2.6 km/h 82 % 0 mm
02:50 -9.7 °C -11.4 °C 34327.3 hPa NE 5.1 km/h 7.7 km/h 81 % 0 mm
03:00 -9.7 °C -11.3 °C 34327.3 hPa Calm   5.1 km/h 82 % 0 mm
03:10 -9.7 °C -11.3 °C 34327.3 hPa NE 2.6 km/h 5.1 km/h 82 % 0 mm
03:20 -9.7 °C -11.3 °C 34361.1 hPa Calm   5.1 km/h 83 % 0 mm
03:30 -9.7 °C -11.3 °C 34361.1 hPa East 2.6 km/h 5.1 km/h 83 % 0 mm
03:40 -9.7 °C -11.2 °C 34361.1 hPa ENE 5.1 km/h 5.1 km/h 84 % 0 mm
03:50 -9.6 °C -10.9 °C 34361.1 hPa NE 2.6 km/h 5.1 km/h 85 % 0 mm
04:00 -9.4 °C -10.7 °C 34361.1 hPa NE 2.6 km/h 5.1 km/h 86 % 0 mm
04:10 -9.3 °C -10.6 °C 34361.1 hPa NNE 5.1 km/h 7.7 km/h 86 % 0 mm
04:20 -9.2 °C -10.4 °C 34361.1 hPa NE 7.7 km/h 7.7 km/h 87 % 0 mm
04:30 -9.3 °C -10.4 °C 34361.1 hPa ENE 5.1 km/h 7.7 km/h 87 % 0 mm
04:40 -9.2 °C -10.4 °C 34327.3 hPa ENE 2.6 km/h 5.1 km/h 87 % 0 mm
04:50 -9.1 °C -10.3 °C 34361.1 hPa ENE 2.6 km/h 5.1 km/h 87 % 0 mm
05:00 -9 °C -10.2 °C 34361.1 hPa East 5.1 km/h 5.1 km/h 87 % 0 mm
05:10 -8.8 °C -9.9 °C 34361.1 hPa Calm     87 % 0 mm
05:20 -8.7 °C -9.9 °C 34361.1 hPa ENE 2.6 km/h 5.1 km/h 87 % 0 mm
05:30 -8.5 °C -9.9 °C 34361.1 hPa NNE 2.6 km/h 5.1 km/h 85 % 0 mm
05:40 -8.2 °C -9.8 °C 34327.3 hPa North 7.7 km/h 7.7 km/h 84 % 0 mm
10:42 -8.3 °C -9.8 °C 34327.3 hPa NE 9 km/h 9 km/h 84 % 0 mm
10:47 -8.2 °C -9.8 °C 34327.3 hPa East 6 km/h 6 km/h 84 % 0 mm
10:52 -8.2 °C -9.8 °C 34361.1 hPa NNW 6 km/h   83 % 0 mm
10:57 -8 °C -9.6 °C 34361.1 hPa ENE 3.7 km/h   83 % 0 mm
11:02 -7.9 °C -9.6 °C 34361.1 hPa ENE 6 km/h 6 km/h 83 % 0 mm
11:07 -7.7 °C -9.4 °C 34361.1 hPa WSW 6.3 km/h 6.3 km/h 82 % 0 mm
11:12 -7.7 °C -9.6 °C 34361.1 hPa SE 6 km/h 6 km/h 81 % 0 mm
11:17 -7.6 °C -9.4 °C 34361.1 hPa NNE 6.8 km/h 6.8 km/h 81 % 0 mm
11:22 -7.6 °C -9.5 °C 34327.3 hPa ENE 5.1 km/h 5.1 km/h 80 % 0 mm
11:27 -7.6 °C -9.5 °C 34327.3 hPa East 3.1 km/h   80 % 0 mm
11:32 -7.4 °C -9.4 °C 34327.3 hPa NE 6 km/h 6 km/h 79 % 0 mm
11:37 -7.3 °C -9.4 °C 34327.3 hPa East 6.3 km/h 6.8 km/h 79 % 0 mm
11:42 -7.2 °C -9.4 °C 34327.3 hPa West 3.1 km/h   78 % 0 mm
11:47 -6.9 °C -9.2 °C 34327.3 hPa WSW 10.3 km/h 10.3 km/h 77 % 0 mm
11:52 -7 °C -9.3 °C 34327.3 hPa WSW 11.9 km/h 11.9 km/h 77 % 0 mm
11:57 -6.8 °C -9.1 °C 34327.3 hPa ESE 11.9 km/h 11.9 km/h 77 % 0 mm
12:02 -6.3 °C -8.9 °C 34327.3 hPa South 6 km/h 6 km/h 75 % 0 mm
12:07 -6.2 °C -8.8 °C 34327.3 hPa East 11.9 km/h 11.9 km/h 74 % 0 mm
12:12 -6.2 °C -8.9 °C 34327.3 hPa ESE 9 km/h 9 km/h 73 % 0 mm
12:17 -6 °C -8.9 °C 34327.3 hPa SSW 15 km/h 15 km/h 72 % 0 mm
12:22 -5.7 °C -8.5 °C 34327.3 hPa South 6 km/h 6 km/h 73 % 0 mm
12:27 -5.6 °C -8.7 °C 34327.3 hPa SW 11.9 km/h 11.9 km/h 70 % 0 mm
12:32 -5.4 °C -8.7 °C 34327.3 hPa SW 9 km/h 9 km/h 69 % 0 mm
12:37 -5.2 °C -8.7 °C 34327.3 hPa WSW 15 km/h 15 km/h 68 % 0 mm
12:42 -5 °C -8.7 °C 34327.3 hPa SE 8 km/h 8 km/h 66 % 0 mm
12:47 -5 °C -8.7 °C 34327.3 hPa South 9 km/h 9 km/h 66 % 0 mm
12:52 -5.1 °C -8.9 °C 34327.3 hPa SE 9 km/h 9 km/h 65 % 0 mm
12:57 -4.9 °C -8.7 °C 34327.3 hPa SW 7.6 km/h 7.6 km/h 65 % 0 mm
13:02 -4.8 °C -8.7 °C 34327.3 hPa ENE 9.3 km/h 9.3 km/h 65 % 0 mm
13:07 -4.8 °C -8.8 °C 34327.3 hPa SE 17.9 km/h 17.9 km/h 64 % 0 mm
13:12 -4.7 °C -8.7 °C 34327.3 hPa ESE 11.9 km/h 11.9 km/h 64 % 0 mm
13:17 -4.6 °C -8.8 °C 34327.3 hPa WSW 14 km/h 14 km/h 63 % 0 mm
13:22 -4.5 °C -8.8 °C 34327.3 hPa NNE 9 km/h 9 km/h 62 % 0 mm
13:27 -4.4 °C -8.7 °C 34327.3 hPa East 12.2 km/h 12.2 km/h 62 % 0 mm
13:32 -4.3 °C -8.7 °C 34327.3 hPa SSE 11.9 km/h 11.9 km/h 61 % 0 mm
13:37 -4.2 °C -8.8 °C 34327.3 hPa ENE 20.3 km/h 20.3 km/h 60 % 0 mm
13:42 -4.2 °C -8.6 °C 34327.3 hPa ESE 11.9 km/h 11.9 km/h 61 % 0 mm
13:47 -4.3 °C -8.7 °C 34327.3 hPa SE 15 km/h 15 km/h 61 % 0 mm
13:52 -4.1 °C -8.7 °C 34327.3 hPa SW 15 km/h 15 km/h 60 % 0 mm
13:57 -4.1 °C -8.7 °C 34327.3 hPa East 20.9 km/h 20.9 km/h 60 % 0 mm
14:02 -4.2 °C -8.8 °C 34327.3 hPa ESE 15.3 km/h 16.1 km/h 60 % 0 mm
14:07 -4.1 °C -8.6 °C 34327.3 hPa ESE 23.8 km/h 23.8 km/h 61 % 0 mm
14:12 -4.3 °C -8.8 °C 34327.3 hPa ENE 32.8 km/h 32.8 km/h 60 % 0 mm
14:17 -4.2 °C -8.8 °C 34327.3 hPa North 26.9 km/h 26.9 km/h 60 % 0 mm
14:22 -4.1 °C -8.6 °C 34293.4 hPa East 17.9 km/h 17.9 km/h 61 % 0 mm
14:27 -4.1 °C -8.7 °C 34293.4 hPa ESE 27.2 km/h 27.2 km/h 60 % 0 mm
14:32 -4.1 °C -8.7 °C 34293.4 hPa East 26.9 km/h 26.9 km/h 60 % 0 mm
14:37 -4.1 °C -8.7 °C 34293.4 hPa ESE 26.9 km/h 26.9 km/h 60 % 0 mm
14:42 -4.1 °C -8.7 °C 34293.4 hPa East 23.8 km/h 23.8 km/h 60 % 0 mm
14:47 -4.2 °C -8.8 °C 34293.4 hPa ESE 20.9 km/h 20.9 km/h 60 % 0 mm
14:52 -4 °C -8.6 °C 34256.2 hPa ENE 16.6 km/h 19.2 km/h 60 % 0 mm
14:57 -4.1 °C -8.7 °C 34256.2 hPa ENE 17.9 km/h 17.9 km/h 60 % 0 mm
15:02 -3.9 °C -8.6 °C 34256.2 hPa ESE 23.3 km/h 23.3 km/h 60 % 0 mm
15:07 -4.1 °C -8.7 °C 34256.2 hPa NNE 17.9 km/h 17.9 km/h 60 % 0 mm
15:12 -3.9 °C -8.7 °C 34256.2 hPa NE 20.9 km/h 20.9 km/h 59 % 0 mm
15:17 -3.9 °C -8.8 °C 34222.3 hPa ESE 20.9 km/h 20.9 km/h 58 % 0 mm
15:22 -3.8 °C -8.7 °C 34222.3 hPa ENE 23.8 km/h 23.8 km/h 58 % 0 mm
15:27 -3.8 °C -8.7 °C 34222.3 hPa East 20.9 km/h 20.9 km/h 58 % 0 mm
15:32 -3.8 °C -8.7 °C 34222.3 hPa ENE 29.8 km/h 29.8 km/h 58 % 0 mm
15:37 -3.9 °C -8.8 °C 34222.3 hPa ESE 35.7 km/h 35.7 km/h 58 % 0 mm
15:42 -4.1 °C -8.9 °C 34222.3 hPa SSW 32.8 km/h 32.8 km/h 58 % 0 mm
15:52 -4.2 °C -9.1 °C 34256.2 hPa ESE 23.8 km/h 23.8 km/h 58 % 0 mm
15:57 -4.3 °C -9.1 °C 34256.2 hPa ESE 26.9 km/h 26.9 km/h 59 % 0 mm
16:02 -4.5 °C -9.1 °C 34256.2 hPa ENE 35.7 km/h 35.7 km/h 60 % 0 mm
16:07 -4.7 °C -9.3 °C 34256.2 hPa East 32.8 km/h 32.8 km/h 60 % 0 mm
16:12 -4.8 °C -9.3 °C 34256.2 hPa ESE 32.8 km/h 32.8 km/h 60 % 0 mm
16:17 -4.9 °C -9.3 °C 34256.2 hPa ESE 26.9 km/h 26.9 km/h 61 % 0 mm
16:22 -5.2 °C -9.5 °C 34256.2 hPa NE 26.9 km/h 26.9 km/h 62 % 0 mm
16:27 -5.2 °C -9.5 °C 34256.2 hPa ESE 27.7 km/h 27.7 km/h 62 % 0 mm
16:37 -5.4 °C -9.6 °C 34256.2 hPa East 23.8 km/h 23.8 km/h 62 % 0 mm
16:42 -5.4 °C -9.6 °C 34256.2 hPa ESE 15 km/h 15 km/h 63 % 0 mm
16:48 -5.3 °C -9.6 °C 34256.2 hPa ESE 17.9 km/h 17.9 km/h 62 % 0 mm
16:58 -5.1 °C -9.3 °C 34256.2 hPa ESE 15 km/h 15 km/h 62 % 0 mm
17:03 -4.9 °C -9.2 °C 34256.2 hPa ESE 15 km/h 15 km/h 62 % 0 mm
17:08 -4.9 °C -9.3 °C 34256.2 hPa ENE 11.9 km/h 11.9 km/h 61 % 0 mm
17:13 -4.9 °C -9.3 °C 34256.2 hPa ENE 9 km/h 9 km/h 61 % 0 mm
17:18 -4.6 °C -9 °C 34256.2 hPa East 6 km/h 6 km/h 61 % 0 mm
17:23 -4.5 °C -8.9 °C 34256.2 hPa ENE 14 km/h 14 km/h 61 % 0 mm
17:33 -4.6 °C -9 °C 34256.2 hPa East 26.9 km/h 26.9 km/h 61 % 0 mm
17:38 -4.5 °C -9.1 °C 34256.2 hPa ENE 32.8 km/h 32.8 km/h 60 % 0 mm
17:43 -4.7 °C -9.2 °C 34256.2 hPa ENE 26.9 km/h 26.9 km/h 60 % 0 mm
17:48 -4.6 °C -9 °C 34256.2 hPa ESE 20.9 km/h 20.9 km/h 61 % 0 mm
17:53 -4.5 °C -9.1 °C 34256.2 hPa ESE 29 km/h 29 km/h 60 % 0 mm
17:58 -4.3 °C -9 °C 34256.2 hPa ENE 23.8 km/h 23.8 km/h 59 % 0 mm
18:03 -4.3 °C -9 °C 34256.2 hPa West 15 km/h 15 km/h 59 % 0 mm
18:08 -3.9 °C -8.9 °C 34256.2 hPa SSE 15 km/h 15 km/h 57 % 0 mm
18:13 -4.1 °C -9 °C 34256.2 hPa East 20.9 km/h 20.9 km/h 58 % 0 mm
18:18 -3.9 °C -8.9 °C 34256.2 hPa ESE 17.9 km/h 17.9 km/h 57 % 0 mm
18:23 -4.2 °C -8.9 °C 34256.2 hPa SE 15 km/h 15 km/h 59 % 0 mm
18:28 -3.9 °C -8.8 °C 34256.2 hPa SSW 11.9 km/h 11.9 km/h 58 % 0 mm
18:33 -4 °C -8.9 °C 34256.2 hPa SW 20.9 km/h 20.9 km/h 58 % 0 mm
18:38 -4.3 °C -9.2 °C 34256.2 hPa WSW 15.6 km/h 15.6 km/h 58 % 0 mm
18:43 -4.5 °C -9.2 °C 34256.2 hPa SW 11.9 km/h 11.9 km/h 59 % 0 mm
18:48 -4.5 °C -9.2 °C 34256.2 hPa West 11.9 km/h 11.9 km/h 59 % 0 mm
18:53 -4.5 °C -9.2 °C 34256.2 hPa West 15 km/h 15 km/h 59 % 0 mm
18:58 -4.8 °C -9.4 °C 34256.2 hPa West 17.9 km/h 17.9 km/h 60 % 0 mm
19:03 -4.8 °C -9.4 °C 34256.2 hPa SW 15 km/h 15 km/h 60 % 0 mm
19:08 -4.8 °C -9.4 °C 34256.2 hPa WSW 11.9 km/h 11.9 km/h 60 % 0 mm
19:13 -4.8 °C -9.4 °C 34256.2 hPa WSW 11.9 km/h 11.9 km/h 60 % 0 mm
19:18 -5.2 °C -9.4 °C 34222.3 hPa WSW 11.9 km/h 11.9 km/h 62 % 0 mm
19:23 -5.3 °C -9.6 °C 34222.3 hPa SSW 9 km/h 9 km/h 62 % 0 mm
19:28 -5.3 °C -9.6 °C 34222.3 hPa SW 9 km/h 9 km/h 62 % 0 mm
19:33 -5.3 °C -9.6 °C 34256.2 hPa NW 6 km/h 6 km/h 62 % 0 mm
19:38 -5.3 °C -9.6 °C 34256.2 hPa WSW 6 km/h 6 km/h 62 % 0 mm
19:43 -5.3 °C -9.6 °C 34256.2 hPa WSW 9 km/h 9 km/h 62 % 0 mm
19:48 -5.4 °C -9.6 °C 34222.3 hPa SW 9 km/h 9 km/h 63 % 0 mm
19:58 -5.4 °C -9.5 °C 34222.3 hPa ENE 6 km/h 6 km/h 63 % 0 mm
20:03 -5.6 °C -9.4 °C 34222.3 hPa ENE 6.3 km/h 6.3 km/h 65 % 0 mm
20:13 -5.7 °C -9.6 °C 34222.3 hPa East 11.9 km/h 11.9 km/h 65 % 0 mm
20:18 -5.7 °C -9.6 °C 34222.3 hPa East 11.9 km/h 11.9 km/h 65 % 0 mm
20:23 -5.8 °C -9.5 °C 34222.3 hPa SE 9 km/h 9 km/h 66 % 0 mm
20:28 -5.9 °C -9.6 °C 34222.3 hPa SSW 12.2 km/h 12.2 km/h 66 % 0 mm
20:33 -5.9 °C -9.6 °C 34198.6 hPa SSW 9 km/h 9 km/h 66 % 0 mm
20:38 -5.9 °C -9.6 °C 34198.6 hPa South 6 km/h 6 km/h 66 % 0 mm
20:43 -5.9 °C -9.6 °C 34198.6 hPa SSE 9 km/h 9 km/h 66 % 0 mm
20:48 -5.9 °C -9.5 °C 34222.3 hPa ESE 9 km/h 9 km/h 67 % 0 mm
20:53 -5.9 °C -9.5 °C 34222.3 hPa ESE 15 km/h 15 km/h 67 % 0 mm
20:58 -5.9 °C -9.5 °C 34222.3 hPa ESE 9.8 km/h 9.8 km/h 67 % 0 mm
21:03 -5.9 °C -9.5 °C 34222.3 hPa ESE 16.1 km/h 16.1 km/h 67 % 0 mm
21:08 -5.9 °C -9.5 °C 34222.3 hPa ESE 15 km/h 15 km/h 67 % 0 mm
21:13 -5.9 °C -9.5 °C 34222.3 hPa ENE 9 km/h 9 km/h 67 % 0 mm
21:19 -5.9 °C -9.5 °C 34222.3 hPa East 6 km/h 6 km/h 67 % 0 mm
21:24 -5.9 °C -9.5 °C 34222.3 hPa SE 9 km/h 9 km/h 67 % 0 mm
21:29 -5.9 °C -9.5 °C 34222.3 hPa ENE 6.3 km/h 6.3 km/h 67 % 0 mm
21:34 -5.9 °C -9.5 °C 34222.3 hPa East 3.1 km/h 3.1 km/h 67 % 0 mm
21:39 -5.9 °C -9.5 °C 34222.3 hPa East 6 km/h 6 km/h 67 % 0 mm
21:44 -5.9 °C -9.5 °C 34222.3 hPa ESE 6 km/h 6 km/h 67 % 0 mm
21:49 -6.4 °C -9.6 °C 34256.2 hPa NE 9 km/h 9 km/h 70 % 0 mm
21:54 -6.4 °C -9.6 °C 34256.2 hPa ENE 6 km/h 6 km/h 70 % 0 mm
21:59 -6.4 °C -9.6 °C 34256.2 hPa SSE 11.9 km/h 11.9 km/h 70 % 0 mm
22:04 -6.4 °C -9.6 °C 34256.2 hPa ESE 9.3 km/h 9.3 km/h 70 % 0 mm
22:09 -6.4 °C -9.6 °C 34256.2 hPa SSE 3.7 km/h   70 % 0 mm
22:14 -6.8 °C -9.6 °C 34256.2 hPa West 3.1 km/h 3.1 km/h 73 % 0 mm
22:19 -6.8 °C -9.6 °C 34256.2 hPa SW 11.9 km/h 11.9 km/h 73 % 0 mm
22:24 -6.8 °C -9.6 °C 34256.2 hPa WSW 22 km/h 22 km/h 73 % 0 mm
22:29 -6.9 °C -9.4 °C 34256.2 hPa SW 26.9 km/h 26.9 km/h 75 % 0 mm
22:34 -7.1 °C -9.3 °C 34327.3 hPa West 9.3 km/h 22 km/h 78 % 0 mm
22:39 -7.6 °C -9.1 °C 34327.3 hPa West 11.9 km/h 11.9 km/h 84 % 0 mm
22:49 -8.2 °C -10.7 °C 34327.3 hPa WSW 26.9 km/h 26.9 km/h 75 % 25.4 mm
22:54 -8.5 °C -11 °C 34327.3 hPa WSW 20.9 km/h 20.9 km/h 75 % 25.4 mm
22:59 -8.7 °C -11.1 °C 34327.3 hPa WSW 15 km/h 15 km/h 76 % 25.4 mm
23:04 -8.8 °C -11.1 °C 34327.3 hPa WSW 6 km/h   77 % 25.4 mm
23:09 -8.9 °C -11.2 °C 34327.3 hPa WSW 6 km/h 6 km/h 77 % 25.4 mm
23:14 -9.1 °C -11.2 °C 34327.3 hPa South 3.1 km/h   78 % 25.4 mm
23:19 -9.2 °C -11.2 °C 34327.3 hPa WSW 3.1 km/h   79 % 25.4 mm
23:24 -9.2 °C -11.2 °C 34327.3 hPa Calm     79 % 25.4 mm
23:29 -9.1 °C -11 °C 34327.3 hPa Calm     80 % 25.4 mm
23:34 -9.2 °C -11.1 °C 34293.4 hPa ENE 3.1 km/h 3.1 km/h 80 % 25.4 mm
23:39 -9.2 °C -11.2 °C 34293.4 hPa ESE 6 km/h 6 km/h 79 % 25.4 mm
23:44 -9.1 °C -11.2 °C 34293.4 hPa SW 4.2 km/h 4.2 km/h 79 % 0 mm
23:49 -9.1 °C -11.2 °C 34293.4 hPa WSW 6 km/h 6 km/h 79 % 0 mm
23:54 -9.2 °C -11.2 °C 34293.4 hPa SW 8 km/h 8 km/h 79 % 0 mm
23:59 -9.2 °C -11.2 °C 34293.4 hPa ENE 4.2 km/h 4.2 km/h 80 % 0 mm
Meteo Sesrovires
Elogis d' Weather Underground - 2 mb

Guio original per  Jim McMurry - jmcmurry@mwt.net Adaptat per a la plantilla per  Wim van der Kuil - Leuven-Template.eu

Trobareu la nostra informacio del temps tambe a:

Weather Underground

AWEKAS